Time;durP1;ratioP1;P1;durP2;ratioP2;P2;SDS_P1;SDS_P2;PMS_P1;PMS_P2;Temp;Humidity;BMP_temperature;BMP_pressure;BME280_temperature;BME280_humidity;BME280_pressure;Samples;Min_cycle;Max_cycle;Signal;HPM_P1;HPM_P2
2023/10/18 00:01:49;;;;;;;13.20;9.30;;;10.70;96.60;;;;;;5032993;28;20036;-79
2023/10/18 00:04:17;;;;;;;13.18;10.05;;;10.70;96.90;;;;;;5015656;28;20033;-81
2023/10/18 00:06:47;;;;;;;12.60;10.20;;;10.70;96.80;;;;;;5032824;28;20033;-81
2023/10/18 00:11:57;;;;;;;11.98;8.82;;;10.70;96.70;;;;;;5033144;28;20036;-81
2023/10/18 00:14:22;;;;;;;10.25;9.05;;;10.70;97.00;;;;;;5032560;28;20026;-82
2023/10/18 00:16:48;;;;;;;15.43;10.95;;;10.60;96.80;;;;;;5033230;28;20029;-81
2023/10/18 00:19:13;;;;;;;14.80;10.50;;;10.60;97.10;;;;;;5001992;28;20068;-79
2023/10/18 00:21:39;;;;;;;15.52;11.30;;;10.60;97.00;;;;;;5036349;28;20038;-81
2023/10/18 00:24:05;;;;;;;16.02;10.63;;;10.50;96.90;;;;;;5036721;28;20025;-82
2023/10/18 00:26:31;;;;;;;10.95;9.07;;;10.40;97.00;;;;;;5036450;28;20112;-81
2023/10/18 00:28:56;;;;;;;10.35;8.85;;;10.30;97.10;;;;;;5036281;28;20121;-80
2023/10/18 00:31:22;;;;;;;14.13;11.68;;;10.40;97.30;;;;;;5035915;28;20100;-81
2023/10/18 00:33:48;;;;;;;13.85;10.60;;;10.30;97.20;;;;;;5036635;28;20029;-81
2023/10/18 00:36:17;;;;;;;15.90;10.48;;;10.20;97.40;;;;;;5036392;28;20029;-80
2023/10/18 00:38:46;;;;;;;13.02;9.88;;;10.20;97.50;;;;;;5036201;28;20533;-80
2023/10/18 00:41:21;;;;;;;14.63;10.95;;;10.10;97.50;;;;;;5036276;28;20018;-80
2023/10/18 00:43:47;;;;;;;12.88;8.57;;;9.80;97.90;;;;;;5036523;28;20033;-80
2023/10/18 00:46:16;;;;;;;14.13;9.70;;;10.00;98.20;;;;;;5036380;28;20524;-79
2023/10/18 00:48:44;;;;;;;15.88;10.07;;;10.10;98.20;;;;;;5018679;28;20033;-82
2023/10/18 00:51:11;;;;;;;14.80;9.57;;;10.20;97.90;;;;;;5036203;28;20030;-81
2023/10/18 00:53:39;;;;;;;10.68;8.27;;;10.30;97.70;;;;;;5035478;28;20042;-80
2023/10/18 00:56:05;;;;;;;10.23;7.60;;;10.30;97.50;;;;;;5036113;28;20029;-81
2023/10/18 00:58:33;;;;;;;13.73;10.88;;;10.20;97.40;;;;;;5018213;28;20589;-81
2023/10/18 01:01:09;;;;;;;13.27;9.63;;;10.30;97.40;;;;;;5035809;28;20072;-80
2023/10/18 01:03:38;;;;;;;13.60;10.82;;;10.20;97.50;;;;;;5035914;28;20030;-80
2023/10/18 01:06:12;;;;;;;12.45;9.95;;;10.20;97.50;;;;;;5018272;28;20032;-81
2023/10/18 01:08:38;;;;;;;15.15;10.43;;;10.00;97.50;;;;;;5035805;28;20034;-81
2023/10/18 01:11:07;;;;;;;12.73;9.73;;;10.00;97.70;;;;;;5035661;28;20026;-80
2023/10/18 01:13:40;;;;;;;13.80;10.32;;;10.00;97.80;;;;;;5036024;28;20032;-80
2023/10/18 01:16:21;;;;;;;15.98;10.13;;;10.00;97.90;;;;;;5035330;28;20040;-80
2023/10/18 01:18:52;;;;;;;15.98;10.95;;;10.10;97.70;;;;;;5035700;28;20072;-79
2023/10/18 01:21:19;;;;;;;14.13;9.40;;;10.10;97.50;;;;;;5034905;28;20086;-80
2023/10/18 01:23:54;;;;;;;16.38;11.13;;;10.10;97.50;;;;;;5017965;28;20413;-79
2023/10/18 01:26:27;;;;;;;10.98;8.95;;;10.00;97.50;;;;;;5017814;28;20026;-80
2023/10/18 01:28:56;;;;;;;14.52;10.75;;;10.00;98.10;;;;;;5034745;28;20100;-80
2023/10/18 01:31:22;;;;;;;15.57;10.18;;;10.00;97.90;;;;;;5034986;28;20470;-80
2023/10/18 01:33:50;;;;;;;11.45;8.98;;;10.10;97.70;;;;;;5034998;28;20520;-79
2023/10/18 01:36:17;;;;;;;13.45;10.75;;;10.10;97.70;;;;;;5035241;28;20029;-80
2023/10/18 01:38:52;;;;;;;16.35;11.10;;;10.20;97.80;;;;;;5035435;28;20025;-81
2023/10/18 01:41:29;;;;;;;14.02;9.95;;;10.00;97.40;;;;;;5035174;28;20053;-80
2023/10/18 01:44:06;;;;;;;13.60;10.43;;;10.00;97.70;;;;;;5035024;28;20031;-80
2023/10/18 01:46:37;;;;;;;10.02;8.18;;;10.10;97.70;;;;;;5018713;28;20040;-79
2023/10/18 01:49:06;;;;;;;11.77;9.18;;;10.20;97.60;;;;;;5035139;28;20041;-80
2023/10/18 01:51:32;;;;;;;13.20;9.07;;;10.30;97.40;;;;;;5034543;28;20030;-80
2023/10/18 01:54:02;;;;;;;12.73;9.57;;;10.30;97.10;;;;;;5017274;28;20037;-80
2023/10/18 01:56:28;;;;;;;13.45;8.77;;;10.30;97.10;;;;;;5017303;28;20136;-80
2023/10/18 01:58:54;;;;;;;15.48;9.80;;;10.30;97.10;;;;;;5034836;28;20049;-81
2023/10/18 02:01:21;;;;;;;15.35;11.45;;;10.30;97.20;;;;;;5035020;28;20053;-81
2023/10/18 02:03:50;;;;;;;10.63;8.13;;;10.30;96.90;;;;;;5034662;28;20018;-80
2023/10/18 02:06:16;;;;;;;13.73;9.90;;;10.20;96.90;;;;;;5034777;28;20084;-80
2023/10/18 02:08:42;;;;;;;12.75;10.25;;;10.20;97.10;;;;;;5034497;28;20095;-81
2023/10/18 02:11:11;;;;;;;13.38;8.63;;;10.20;97.30;;;;;;5016976;28;20030;-80
2023/10/18 02:13:37;;;;;;;13.20;9.23;;;10.20;97.30;;;;;;5034542;28;20076;-81
2023/10/18 02:16:06;;;;;;;15.18;11.15;;;10.20;97.40;;;;;;5034153;28;20029;-81
2023/10/18 02:18:33;;;;;;;11.25;8.60;;;10.30;96.90;;;;;;5034169;28;20034;-81
2023/10/18 02:21:00;;;;;;;12.60;9.27;;;10.30;97.00;;;;;;5034391;28;20050;-80
2023/10/18 02:23:34;;;;;;;16.58;11.07;;;10.20;96.90;;;;;;5033999;28;20060;-80
2023/10/18 02:26:22;;;;;;;14.52;10.27;;;10.20;96.90;;;;;;5034187;28;20034;-81
2023/10/18 02:28:48;;;;;;;12.27;10.20;;;10.10;97.00;;;;;;5019717;28;20049;-81
2023/10/18 02:31:21;;;;;;;13.38;10.43;;;10.10;96.90;;;;;;5032982;28;20091;-81
2023/10/18 02:33:48;;;;;;;12.30;8.63;;;10.00;97.00;;;;;;5016408;28;20039;-81
2023/10/18 02:36:20;;;;;;;10.88;8.60;;;10.00;97.50;;;;;;5034197;28;20104;-82
2023/10/18 02:38:49;;;;;;;11.68;8.73;;;10.10;97.40;;;;;;5033878;28;20057;-82
2023/10/18 02:41:21;;;;;;;12.05;9.23;;;10.10;97.20;;;;;;5034207;28;20057;-81
2023/10/18 02:43:48;;;;;;;17.60;11.45;;;10.10;97.40;;;;;;5033778;28;20077;-82
2023/10/18 02:46:24;;;;;;;13.30;9.65;;;10.00;96.90;;;;;;5034066;28;20029;-81
2023/10/18 02:48:52;;;;;;;12.93;9.68;;;9.90;97.40;;;;;;5033846;28;20497;-81
2023/10/18 02:51:24;;;;;;;16.33;11.68;;;9.90;97.30;;;;;;5033835;28;20025;-81
2023/10/18 02:54:00;;;;;;;12.77;9.30;;;9.90;97.10;;;;;;5033930;28;20087;-81
2023/10/18 02:56:32;;;;;;;13.65;9.02;;;9.70;97.50;;;;;;5033872;28;20034;-82
2023/10/18 02:58:59;;;;;;;13.38;9.70;;;9.80;97.60;;;;;;5033727;28;20095;-82
2023/10/18 03:01:28;;;;;;;14.10;9.70;;;9.90;97.60;;;;;;5033521;28;20038;-82
2023/10/18 03:03:57;;;;;;;14.05;9.90;;;9.90;97.40;;;;;;5033084;28;20030;-82
2023/10/18 03:06:28;;;;;;;15.95;10.85;;;9.60;97.20;;;;;;5033575;28;20041;-81
2023/10/18 03:08:58;;;;;;;15.63;11.27;;;9.30;97.90;;;;;;5016114;28;20049;-82
2023/10/18 03:11:25;;;;;;;14.85;10.80;;;9.10;98.60;;;;;;5033351;28;20087;-81
2023/10/18 03:13:51;;;;;;;13.90;9.93;;;9.10;98.70;;;;;;5016370;28;20086;-82
2023/10/18 03:16:39;;;;;;;15.25;11.63;;;9.20;98.60;;;;;;5033196;28;20463;-82
2023/10/18 03:19:09;;;;;;;18.27;12.23;;;9.10;98.40;;;;;;5032553;28;20100;-82
2023/10/18 03:21:35;;;;;;;18.65;11.35;;;9.00;98.50;;;;;;5033173;28;20033;-82
2023/10/18 03:24:01;;;;;;;14.70;11.35;;;8.90;98.80;;;;;;5015958;28;20136;-82
2023/10/18 03:26:37;;;;;;;17.02;11.85;;;9.00;99.00;;;;;;5033271;28;20030;-82
2023/10/18 03:29:12;;;;;;;14.73;11.02;;;8.90;98.60;;;;;;5033262;28;20076;-81
2023/10/18 03:31:47;;;;;;;17.80;12.18;;;8.70;99.10;;;;;;5033236;28;20036;-82
2023/10/18 03:34:18;;;;;;;18.45;11.65;;;8.80;99.20;;;;;;5033435;28;20064;-81
2023/10/18 03:36:53;;;;;;;13.18;10.63;;;8.80;99.20;;;;;;5033066;28;20037;-81
2023/10/18 03:39:25;;;;;;;17.00;11.65;;;8.80;99.30;;;;;;5015576;28;20086;-81
2023/10/18 03:41:51;;;;;;;13.23;10.35;;;9.00;99.10;;;;;;5033019;28;20120;-81
2023/10/18 03:44:32;;;;;;;15.00;10.63;;;9.10;98.90;;;;;;5015654;28;20021;-81
2023/10/18 03:47:04;;;;;;;15.30;10.68;;;9.00;98.60;;;;;;5032914;28;20098;-82
2023/10/18 03:49:36;;;;;;;15.43;10.07;;;9.10;98.60;;;;;;5016586;28;20033;-82
2023/10/18 03:54:44;;;;;;;18.80;11.48;;;9.10;98.30;;;;;;5037238;28;20126;-81
2023/10/18 03:57:16;;;;;;;;;;;9.10;98.30;;;;;;5020935;28;20033;-82
2023/10/18 03:59:45;;;;;;;14.10;10.73;;;9.10;98.40;;;;;;5020411;28;19917;-82
2023/10/18 04:02:46;;;;;;;15.60;11.32;;;9.00;98.70;;;;;;5019383;28;20030;-82
2023/10/18 04:05:21;;;;;;;19.73;11.18;;;8.80;98.60;;;;;;5033699;28;20041;-82
2023/10/18 04:07:47;;;;;;;17.20;12.38;;;8.80;98.90;;;;;;5036792;28;20092;-81
2023/10/18 04:10:13;;;;;;;16.10;11.63;;;8.70;99.20;;;;;;5016236;28;20121;-82
2023/10/18 04:12:40;;;;;;;16.00;11.90;;;8.70;99.20;;;;;;5037192;28;20030;-82
2023/10/18 04:15:29;;;;;;;18.48;12.23;;;8.70;99.30;;;;;;5036921;28;20025;-82
2023/10/18 04:20:47;;;;;;;18.88;12.85;;;8.80;99.30;;;;;;5036404;28;20034;-81
2023/10/18 04:23:20;;;;;;;18.40;12.27;;;8.90;99.00;;;;;;5036315;28;20517;-82
2023/10/18 04:26:00;;;;;;;;;;;8.70;99.10;;;;;;5036656;28;20554;-80
2023/10/18 04:28:28;;;;;;;15.93;10.98;;;8.70;99.50;;;;;;5036530;28;19959;-81
2023/10/18 04:31:00;;;;;;;16.30;12.05;;;8.90;99.30;;;;;;5035867;28;20061;-81
2023/10/18 04:33:35;;;;;;;16.33;11.05;;;8.80;99.20;;;;;;5018455;28;20029;-81
2023/10/18 04:36:20;;;;;;;18.20;12.52;;;8.70;99.20;;;;;;5036363;28;20056;-81
2023/10/18 04:38:46;;;;;;;15.98;11.48;;;8.80;99.10;;;;;;5036253;28;20037;-81
2023/10/18 04:43:52;;;;;;;16.58;11.30;;;8.70;99.10;;;;;;5019427;28;20478;-81
2023/10/18 04:46:22;;;;;;;17.02;12.18;;;8.80;99.30;;;;;;5036552;28;20100;-80
2023/10/18 04:51:28;;;;;;;15.98;12.05;;;8.70;99.20;;;;;;5036243;28;20036;-81
2023/10/18 04:54:08;;;;;;;16.90;10.60;;;8.70;99.30;;;;;;5035476;28;20087;-80
2023/10/18 04:56:44;;;;;;;12.80;9.20;;;8.70;99.40;;;;;;5035902;28;20032;-81
2023/10/18 04:59:11;;;;;;;13.88;9.73;;;8.90;99.50;;;;;;5035884;28;20117;-81
2023/10/18 05:04:30;;;;;;;13.02;9.40;;;9.20;99.00;;;;;;5019401;28;20022;-80
2023/10/18 05:07:14;;;;;;;14.05;9.32;;;9.30;98.80;;;;;;5017876;28;20048;-80
2023/10/18 05:09:43;;;;;;;16.00;10.75;;;9.30;98.50;;;;;;5035905;28;20034;-81
2023/10/18 05:14:53;;;;;;;;;;;9.30;98.20;;;;;;5036360;28;20039;-80
2023/10/18 05:17:25;;;;;;;19.70;11.00;;;9.10;98.20;;;;;;5035445;28;19963;-81
2023/10/18 05:19:51;;;;;;;15.35;11.15;;;9.10;98.20;;;;;;5035612;28;20068;-81
2023/10/18 05:22:19;;;;;;;17.70;11.90;;;9.10;98.30;;;;;;5035108;28;20430;-80
2023/10/18 05:24:55;;;;;;;15.93;11.40;;;9.00;98.20;;;;;;5035349;28;20064;-79
2023/10/18 05:27:24;;;;;;;18.05;12.10;;;8.80;98.50;;;;;;5017726;28;20120;-80
2023/10/18 05:29:52;;;;;;;15.10;11.88;;;8.90;98.50;;;;;;5035014;28;20057;-80
2023/10/18 05:35:19;;;;;;;15.95;11.32;;;8.90;98.80;;;;;;5035380;28;20071;-80
2023/10/18 05:38:06;;;;;;;16.10;11.00;;;8.90;98.50;;;;;;5020059;28;20367;-81
2023/10/18 05:43:07;;;;;;;15.27;11.97;;;8.80;98.90;;;;;;5035335;28;20033;-75
2023/10/18 05:45:33;;;;;;;17.60;12.13;;;8.90;98.70;;;;;;5030878;28;20033;-81
2023/10/18 05:48:03;;;;;;;18.20;12.23;;;8.80;98.80;;;;;;5035125;28;20029;-81
2023/10/18 05:50:34;;;;;;;16.33;11.27;;;8.70;98.70;;;;;;5034834;28;20085;-81
2023/10/18 05:53:06;;;;;;;16.75;11.32;;;8.50;99.10;;;;;;5034506;28;20037;-81
2023/10/18 05:55:32;;;;;;;16.40;11.55;;;8.70;99.40;;;;;;5034879;28;20034;-81
2023/10/18 05:58:04;;;;;;;15.85;11.57;;;8.70;99.00;;;;;;5011412;28;20029;-81
2023/10/18 06:00:32;;;;;;;16.30;11.10;;;8.60;99.10;;;;;;5036876;28;20040;-81
2023/10/18 06:03:01;;;;;;;16.23;11.95;;;8.60;99.20;;;;;;5034856;28;20419;-81
2023/10/18 06:05:38;;;;;;;16.75;11.25;;;8.60;99.20;;;;;;5017165;28;20108;-80
2023/10/18 06:08:07;;;;;;;17.13;11.48;;;8.60;99.10;;;;;;5034749;28;20025;-79
2023/10/18 06:10:38;;;;;;;16.23;10.18;;;8.50;99.10;;;;;;5016492;28;20045;-80
2023/10/18 06:13:10;;;;;;;19.80;11.98;;;8.50;99.30;;;;;;5034469;28;20033;-81
2023/10/18 06:15:39;;;;;;;15.50;10.90;;;8.70;99.30;;;;;;5034173;28;20045;-81
2023/10/18 06:18:16;;;;;;;18.65;10.95;;;8.70;98.70;;;;;;5034259;28;20454;-80
2023/10/18 06:20:44;;;;;;;15.15;11.10;;;8.70;98.90;;;;;;5033997;28;20041;-81
2023/10/18 06:23:36;;;;;;;14.98;11.32;;;8.80;99.10;;;;;;5034058;28;20049;-80
2023/10/18 06:25:59;;;;;;;16.92;11.63;;;8.90;99.10;;;;;;5033846;28;20037;-80
2023/10/18 06:28:25;;;;;;;14.30;10.25;;;8.90;98.70;;;;;;5016458;28;20478;-80
2023/10/18 06:30:52;;;;;;;16.17;10.55;;;8.90;98.60;;;;;;5034197;28;20076;-80
2023/10/18 06:33:21;;;;;;;14.15;10.07;;;8.90;98.60;;;;;;5033932;28;20029;-79
2023/10/18 06:35:53;;;;;;;14.23;10.77;;;9.00;98.70;;;;;;5033922;28;20037;-79
2023/10/18 06:38:23;;;;;;;14.50;10.60;;;9.10;98.20;;;;;;5034114;28;20084;-80
2023/10/18 06:40:53;;;;;;;15.35;11.00;;;9.00;98.10;;;;;;5034037;28;20063;-80
2023/10/18 06:43:21;;;;;;;17.05;10.60;;;9.00;98.30;;;;;;5033653;28;20029;-80
2023/10/18 06:45:50;;;;;;;16.80;11.85;;;9.10;98.20;;;;;;5034416;28;20458;-80
2023/10/18 06:48:17;;;;;;;12.98;8.38;;;9.10;98.00;;;;;;5015952;28;20025;-80
2023/10/18 06:50:46;;;;;;;14.40;10.55;;;9.10;97.90;;;;;;5016235;28;20030;-80
2023/10/18 06:53:18;;;;;;;15.02;10.52;;;9.10;98.00;;;;;;5033260;28;20398;-80
2023/10/18 06:55:44;;;;;;;13.15;9.98;;;9.20;97.90;;;;;;5033432;28;20544;-79
2023/10/18 07:00:53;;;;;;;15.20;10.13;;;9.30;97.90;;;;;;5033859;28;20043;-80
2023/10/18 07:03:27;;;;;;;15.55;10.10;;;9.30;97.60;;;;;;5033879;28;20064;-80
2023/10/18 07:05:57;;;;;;;14.50;9.95;;;9.30;97.80;;;;;;5033589;28;20037;-80
2023/10/18 07:08:32;;;;;;;17.67;10.98;;;9.10;97.90;;;;;;5033667;28;20448;-80
2023/10/18 07:11:00;;;;;;;15.05;10.02;;;9.10;97.70;;;;;;5033319;28;20120;-81
2023/10/18 07:13:33;;;;;;;13.57;9.70;;;9.10;97.90;;;;;;5012133;28;20037;-79
2023/10/18 07:16:54;;;;;;;15.70;10.60;;;9.10;98.00;;;;;;5034205;28;20442;-78
2023/10/18 07:21:38;;;;;;;15.27;10.60;;;9.10;97.80;;;;;;5033218;28;20129;-74
2023/10/18 07:24:10;;;;;;;11.98;9.05;;;9.20;97.80;;;;;;5015416;28;20466;-80
2023/10/18 07:26:36;;;;;;;13.18;10.18;;;9.10;97.50;;;;;;5032926;28;20041;-80
2023/10/18 07:29:08;;;;;;;12.55;9.77;;;9.10;97.80;;;;;;5032352;28;20033;-80
2023/10/18 07:31:44;;;;;;;13.23;9.53;;;9.20;97.80;;;;;;5033433;28;20095;-81
2023/10/18 07:34:17;;;;;;;16.08;9.85;;;9.20;97.60;;;;;;5032974;28;20036;-80
2023/10/18 07:36:46;;;;;;;11.70;8.52;;;9.20;97.60;;;;;;5033367;28;20032;-79
2023/10/18 07:39:13;;;;;;;12.35;8.93;;;9.20;97.90;;;;;;5032809;28;20045;-79
2023/10/18 07:41:40;;;;;;;14.68;9.65;;;9.40;97.70;;;;;;5035094;28;20420;-78
2023/10/18 07:44:06;;;;;;;11.13;8.63;;;9.50;97.50;;;;;;5032718;28;20021;-77
2023/10/18 07:46:39;;;;;;;12.05;8.40;;;9.50;97.20;;;;;;5032905;28;20072;-78
2023/10/18 07:49:15;;;;;;;13.95;8.82;;;9.50;97.20;;;;;;5041609;28;20486;-84
2023/10/18 07:51:48;;;;;;;14.00;9.82;;;9.50;97.00;;;;;;5033588;28;20029;-81
2023/10/18 07:54:17;;;;;;;;;;;9.50;97.20;;;;;;5045961;28;20029;-83
2023/10/18 07:56:49;;;;;;;15.77;9.43;;;9.50;97.20;;;;;;5052148;28;19991;-84
2023/10/18 07:59:29;;;;;;;11.23;8.75;;;9.30;97.00;;;;;;5042053;28;20025;-83
2023/10/18 08:04:51;;;;;;;9.35;7.40;;;9.40;97.20;;;;;;5027115;28;20096;-78
2023/10/18 08:07:20;;;;;;;13.68;9.18;;;9.50;97.30;;;;;;5048132;28;20437;-78
2023/10/18 08:09:48;;;;;;;13.10;8.80;;;9.60;96.90;;;;;;5047099;28;20056;-78
2023/10/18 08:12:33;;;;;;;12.52;8.65;;;9.60;96.90;;;;;;5047205;28;20029;-77
2023/10/18 08:14:59;;;;;;;11.65;8.70;;;9.60;96.90;;;;;;5051292;28;20056;-84
2023/10/18 08:17:43;;;;;;;9.60;8.25;;;9.70;97.10;;;;;;5044233;28;20045;-80
2023/10/18 08:22:51;;;;;;;11.88;7.85;;;9.90;96.80;;;;;;5043876;28;20120;-80
2023/10/18 08:25:24;;;;;;;12.82;8.05;;;10.00;96.50;;;;;;5044042;28;20060;-83
2023/10/18 08:27:50;;;;;;;;;;;10.00;96.60;;;;;;5043769;28;20032;-81
2023/10/18 08:30:24;;;;;;;11.32;7.90;;;10.10;96.40;;;;;;5043652;28;20297;-77
2023/10/18 08:32:53;;;;;;;12.00;8.10;;;10.10;96.10;;;;;;5043237;28;20029;-78
2023/10/18 08:35:20;;;;;;;14.93;9.00;;;10.10;96.10;;;;;;5022455;28;20390;-77
2023/10/18 08:37:46;;;;;;;15.65;9.18;;;10.10;96.60;;;;;;5030228;28;20393;-76
2023/10/18 08:40:27;;;;;;;13.40;8.45;;;10.00;96.20;;;;;;5050025;28;20035;-77
2023/10/18 08:43:06;;;;;;;13.40;8.82;;;10.10;96.50;;;;;;5049411;28;20078;-78
2023/10/18 08:46:06;;;;;;;11.68;7.45;;;10.10;96.40;;;;;;5050154;28;20032;-78
2023/10/18 08:48:28;;;;;;;12.68;9.10;;;10.10;96.30;;;;;;5032849;28;20041;-77
2023/10/18 08:50:59;;;;;;;14.45;8.88;;;10.10;96.30;;;;;;5051542;28;20128;-76
2023/10/18 08:53:31;;;;;;;13.93;8.35;;;10.20;96.40;;;;;;5049019;28;20524;-76
2023/10/18 08:55:57;;;;;;;10.77;7.95;;;10.20;96.20;;;;;;5048861;28;20030;-76
2023/10/18 08:58:30;;;;;;;11.98;8.73;;;10.20;96.30;;;;;;5049901;28;20033;-75
2023/10/18 09:03:27;;;;;;;11.68;8.10;;;10.30;96.30;;;;;;5054494;28;20045;-79
2023/10/18 09:06:04;;;;;;;12.98;8.02;;;10.40;96.10;;;;;;5036565;28;20036;-79
2023/10/18 09:08:39;;;;;;;9.55;6.57;;;10.40;95.80;;;;;;5036504;28;20461;-79
2023/10/18 09:11:09;;;;;;;11.55;7.68;;;10.50;95.70;;;;;;5050961;28;20055;-78
2023/10/18 09:13:42;;;;;;;12.90;7.70;;;10.60;95.30;;;;;;5050833;28;20072;-78
2023/10/18 09:16:19;;;;;;;11.13;7.78;;;10.80;95.10;;;;;;5036295;28;20496;-78
2023/10/18 09:18:48;;;;;;;9.98;7.15;;;10.90;95.20;;;;;;5038150;28;20121;-79
2023/10/18 09:23:43;;;;;;;11.27;6.60;;;11.00;94.50;;;;;;5049494;28;20029;-77
2023/10/18 09:26:11;;;;;;;9.35;7.00;;;11.20;94.50;;;;;;5021394;28;20029;-79
2023/10/18 09:28:37;;;;;;;15.18;7.45;;;11.30;94.40;;;;;;5031341;28;20033;-79
2023/10/18 09:31:10;;;;;;;7.75;6.15;;;11.40;94.30;;;;;;5031601;28;20049;-78
2023/10/18 09:33:38;;;;;;;9.68;6.43;;;11.50;93.70;;;;;;5033541;28;20424;-77
2023/10/18 09:36:18;;;;;;;9.55;6.40;;;11.60;93.90;;;;;;5049498;28;20025;-78
2023/10/18 09:38:44;;;;;;;7.82;5.88;;;11.70;93.10;;;;;;5046204;28;20029;-78
2023/10/18 09:41:10;;;;;;;7.30;5.95;;;11.80;93.10;;;;;;5048801;28;20099;-77
2023/10/18 09:43:36;;;;;;;9.88;5.82;;;11.80;93.10;;;;;;5046120;28;20086;-78
2023/10/18 09:46:06;;;;;;;9.45;6.00;;;11.90;92.40;;;;;;5048197;28;20494;-79
2023/10/18 09:48:32;;;;;;;8.75;5.93;;;11.90;92.30;;;;;;5046802;28;20037;-77
2023/10/18 09:51:09;;;;;;;11.13;5.72;;;11.90;92.50;;;;;;5045835;28;20072;-78
2023/10/18 09:54:08;;;;;;;7.20;5.70;;;11.90;92.50;;;;;;5044130;28;20053;-77
2023/10/18 09:56:35;;;;;;;7.07;5.53;;;11.80;92.20;;;;;;5026983;28;20096;-78
2023/10/18 09:59:05;;;;;;;7.57;5.50;;;11.90;92.60;;;;;;5028040;28;20033;-78
2023/10/18 10:04:12;;;;;;;7.82;6.38;;;11.80;92.80;;;;;;5048905;28;20424;-79
2023/10/18 10:06:45;;;;;;;6.95;5.18;;;11.80;92.60;;;;;;5048898;28;20037;-76
2023/10/18 10:11:45;;;;;;;8.55;5.57;;;11.80;92.50;;;;;;5049418;28;20036;-78
2023/10/18 10:14:21;;;;;;;11.93;6.15;;;11.80;92.30;;;;;;5045076;28;20021;-77
2023/10/18 10:17:08;;;;;;;9.70;5.57;;;11.90;92.20;;;;;;5048344;28;20033;-75
2023/10/18 10:19:41;;;;;;;8.27;5.45;;;12.00;92.30;;;;;;5044043;28;20120;-76
2023/10/18 10:22:08;;;;;;;10.13;5.53;;;12.10;92.30;;;;;;5048650;28;20103;-76
2023/10/18 10:24:42;;;;;;;7.20;4.97;;;12.10;92.30;;;;;;5048936;28;20116;-75
2023/10/18 10:27:21;;;;;;;8.40;5.20;;;12.20;92.20;;;;;;5051303;28;20108;-75
2023/10/18 10:29:56;;;;;;;7.72;5.53;;;12.20;92.20;;;;;;5036702;28;20051;-76
2023/10/18 10:32:23;;;;;;;10.48;5.93;;;12.20;91.80;;;;;;5051890;28;20037;-75
2023/10/18 10:35:08;;;;;;;8.77;5.60;;;12.30;92.10;;;;;;5051271;28;20445;-74
2023/10/18 10:37:35;;;;;;;11.18;5.40;;;12.40;92.20;;;;;;5034081;28;20036;-74
2023/10/18 10:40:19;;;;;;;9.68;5.45;;;12.40;92.30;;;;;;5050085;28;20042;-74
2023/10/18 10:42:49;;;;;;;6.43;4.40;;;12.60;92.10;;;;;;5035606;28;20033;-75
2023/10/18 10:48:17;;;;;;;8.63;5.40;;;12.90;91.40;;;;;;5051947;28;20029;-74
2023/10/18 10:50:50;;;;;;;6.43;5.10;;;12.90;91.10;;;;;;5051283;28;20029;-75
2023/10/18 10:53:43;;;;;;;7.90;5.10;;;13.00;90.90;;;;;;5046039;28;20025;-75
2023/10/18 10:56:27;;;;;;;6.13;4.63;;;13.00;90.80;;;;;;5046347;28;20032;-73
2023/10/18 11:01:43;;;;;;;8.15;5.57;;;13.20;90.70;;;;;;5045981;28;20063;-74
2023/10/18 11:04:23;;;;;;;6.95;5.03;;;13.30;90.30;;;;;;5044999;28;20023;-76
2023/10/18 11:06:51;;;;;;;6.07;4.57;;;13.40;91.00;;;;;;5045847;28;20045;-75
2023/10/18 11:09:17;;;;;;;6.72;5.05;;;13.50;90.20;;;;;;5046474;28;20385;-76
2023/10/18 11:11:45;;;;;;;7.32;5.07;;;13.50;89.50;;;;;;5047439;28;20548;-75
2023/10/18 11:14:17;;;;;;;6.85;4.93;;;13.60;88.90;;;;;;5031254;28;20025;-75
2023/10/18 11:16:45;;;;;;;10.98;4.95;;;13.60;90.20;;;;;;5023483;28;20056;-75
2023/10/18 11:19:15;;;;;;;8.25;4.82;;;13.70;89.40;;;;;;5046901;28;20033;-75
2023/10/18 11:21:41;;;;;;;8.23;4.50;;;13.80;89.40;;;;;;5047034;28;20025;-75
2023/10/18 11:24:11;;;;;;;9.73;5.13;;;13.80;87.70;;;;;;5025383;28;20113;-77
2023/10/18 11:26:41;;;;;;;9.23;5.40;;;13.80;88.40;;;;;;5046394;28;20025;-77
2023/10/18 11:29:07;;;;;;;6.90;4.80;;;13.90;87.70;;;;;;5028887;28;20049;-76
2023/10/18 11:31:44;;;;;;;9.48;5.13;;;13.90;88.00;;;;;;5030459;28;20056;-77
2023/10/18 11:34:14;;;;;;;9.95;5.00;;;13.90;87.80;;;;;;5044911;28;20043;-78
2023/10/18 11:36:42;;;;;;;8.15;5.05;;;13.90;87.90;;;;;;5026713;28;20029;-78
2023/10/18 11:41:44;;;;;;;7.35;4.90;;;13.90;87.80;;;;;;5044268;28;20092;-78
2023/10/18 11:44:16;;;;;;;9.07;4.55;;;13.90;88.30;;;;;;5045537;28;20041;-80
2023/10/18 11:46:56;;;;;;;6.67;4.77;;;13.90;87.20;;;;;;5026882;28;20044;-78
2023/10/18 11:49:32;;;;;;;10.10;5.10;;;13.90;87.50;;;;;;5016993;28;20110;-77
2023/10/18 11:51:58;;;;;;;7.95;4.93;;;14.00;87.00;;;;;;5044112;28;20117;-77
2023/10/18 11:54:29;;;;;;;6.47;4.25;;;14.00;87.90;;;;;;5047465;28;20116;-78
2023/10/18 11:56:56;;;;;;;9.18;4.95;;;14.20;87.90;;;;;;5046750;28;20036;-78
2023/10/18 11:59:23;;;;;;;7.07;4.55;;;14.20;86.90;;;;;;5047367;28;20052;-76
2023/10/18 12:02:04;;;;;;;6.57;4.43;;;14.30;86.00;;;;;;5028491;28;20030;-77
2023/10/18 12:04:37;;;;;;;8.65;4.78;;;14.30;86.30;;;;;;5044762;28;20052;-78
2023/10/18 12:07:04;;;;;;;7.65;4.88;;;14.20;86.50;;;;;;5044869;28;20033;-77
2023/10/18 12:09:42;;;;;;;8.80;4.50;;;14.30;86.60;;;;;;5046015;28;20094;-77
2023/10/18 12:12:12;;;;;;;6.82;4.50;;;14.30;86.30;;;;;;5014789;28;20045;-78
2023/10/18 12:14:41;;;;;;;6.95;4.20;;;14.40;85.80;;;;;;5030580;28;20063;-78
2023/10/18 12:17:07;;;;;;;6.22;4.60;;;14.40;85.90;;;;;;5035588;28;20033;-78
2023/10/18 12:19:34;;;;;;;6.13;4.57;;;14.50;86.60;;;;;;5052165;28;20116;-77
2023/10/18 12:22:01;;;;;;;7.85;4.53;;;14.50;86.50;;;;;;5053251;28;21453;-77
2023/10/18 12:24:33;;;;;;;4.72;3.97;;;14.50;87.40;;;;;;5037295;28;20110;-78
2023/10/18 12:29:47;;;;;;;7.07;4.18;;;14.60;85.50;;;;;;5051852;28;20074;-77
2023/10/18 12:34:56;;;;;;;5.53;3.38;;;14.70;85.10;;;;;;5037657;28;20462;-74
2023/10/18 12:37:24;;;;;;;8.55;4.13;;;14.90;86.00;;;;;;5055874;28;20088;-75
2023/10/18 12:39:50;;;;;;;7.28;4.80;;;14.90;84.60;;;;;;5040650;28;20034;-75
2023/10/18 12:42:19;;;;;;;6.78;4.57;;;15.00;83.50;;;;;;5036532;28;20057;-75
2023/10/18 12:44:46;;;;;;;8.15;4.22;;;15.00;83.20;;;;;;5036313;28;20068;-75
2023/10/18 12:47:21;;;;;;;6.43;3.78;;;15.00;84.00;;;;;;5018726;28;20037;-75
2023/10/18 12:49:51;;;;;;;7.32;4.00;;;14.90;84.90;;;;;;5036346;28;20112;-75
2023/10/18 12:55:28;;;;;;;7.38;4.22;;;15.00;84.00;;;;;;5036169;28;20083;-75
2023/10/18 12:57:50;;;;;;;5.93;3.67;;;15.10;84.80;;;;;;5035583;28;20087;-75
2023/10/18 13:00:16;;;;;;;5.00;3.80;;;15.20;83.70;;;;;;5035449;28;20037;-75
2023/10/18 13:05:21;;;;;;;5.95;3.60;;;15.20;83.00;;;;;;5035722;28;20059;-76
2023/10/18 13:07:52;;;;;;;6.97;3.85;;;15.20;83.00;;;;;;5035849;28;20036;-75
2023/10/18 13:10:35;;;;;;;5.03;3.60;;;15.20;82.60;;;;;;5035904;28;20094;-75
2023/10/18 13:13:16;;;;;;;6.07;4.05;;;15.20;83.20;;;;;;5035961;28;20034;-75
2023/10/18 13:15:47;;;;;;;5.38;3.63;;;15.00;83.40;;;;;;5019833;28;20506;-75
2023/10/18 13:18:14;;;;;;;5.95;3.90;;;15.00;83.80;;;;;;5018517;28;20025;-75
2023/10/18 13:20:43;;;;;;;4.70;3.60;;;15.00;83.50;;;;;;5035447;28;20037;-75
2023/10/18 13:23:09;;;;;;;6.32;3.83;;;14.90;83.70;;;;;;5017492;28;20036;-75
2023/10/18 13:25:49;;;;;;;6.35;3.80;;;14.90;83.90;;;;;;5016476;28;20029;-74
2023/10/18 13:28:24;;;;;;;8.15;4.63;;;14.90;84.50;;;;;;5035365;28;20154;-75
2023/10/18 13:30:51;;;;;;;6.47;3.95;;;14.90;84.90;;;;;;5016831;28;20061;-75
2023/10/18 13:33:18;;;;;;;6.43;3.60;;;15.00;84.80;;;;;;5035419;28;20068;-75
2023/10/18 13:35:44;;;;;;;5.40;3.50;;;15.00;84.70;;;;;;5035397;28;20029;-75
2023/10/18 13:38:11;;;;;;;8.55;4.38;;;15.10;85.20;;;;;;5017218;28;20032;-74
2023/10/18 13:40:36;;;;;;;5.93;3.80;;;15.10;85.00;;;;;;5035252;28;20108;-75
2023/10/18 13:43:09;;;;;;;6.65;3.58;;;15.10;83.90;;;;;;5017396;28;20100;-74
2023/10/18 13:45:35;;;;;;;5.40;3.45;;;15.10;84.10;;;;;;5035010;28;20532;-75
2023/10/18 13:48:02;;;;;;;6.75;3.83;;;15.10;84.90;;;;;;5035125;28;20046;-75
2023/10/18 13:50:31;;;;;;;6.63;3.38;;;15.10;84.70;;;;;;5035030;28;20398;-76
2023/10/18 13:52:57;;;;;;;5.55;3.78;;;15.10;84.90;;;;;;5034337;28;20037;-75
2023/10/18 13:55:22;;;;;;;3.78;2.70;;;15.10;84.60;;;;;;5035054;28;20363;-76
2023/10/18 13:57:49;;;;;;;5.40;3.42;;;15.20;84.60;;;;;;5034590;28;20091;-75
2023/10/18 14:00:18;;;;;;;3.97;3.03;;;15.10;84.80;;;;;;5016863;28;20550;-75
2023/10/18 14:02:45;;;;;;;6.68;3.42;;;15.10;85.40;;;;;;5034272;28;20558;-75
2023/10/18 14:05:11;;;;;;;4.57;3.00;;;15.10;85.30;;;;;;5034911;28;20029;-75